Time;durP1;ratioP1;P1;durP2;ratioP2;P2;SDS_P1;SDS_P2;PMS_P1;PMS_P2;Temp;Humidity;BMP_temperature;BMP_pressure;BME280_temperature;BME280_humidity;BME280_pressure;Samples;Min_cycle;Max_cycle;Signal;HPM_P1;HPM_P2
2023/09/14 00:01:50;;;;;;;103.13;55.63;;;18.10;94.00;;;;;;4957850;28;94841;-77
2023/09/14 00:04:15;;;;;;;102.97;55.35;;;18.00;94.10;;;;;;4959514;28;94560;-78
2023/09/14 00:06:41;;;;;;;102.40;55.17;;;18.00;94.00;;;;;;4959153;28;95604;-76
2023/09/14 00:09:07;;;;;;;101.75;55.03;;;18.00;94.10;;;;;;4958872;28;94282;-75
2023/09/14 00:11:33;;;;;;;101.30;55.03;;;18.00;94.10;;;;;;4941295;28;94270;-77
2023/09/14 00:13:58;;;;;;;102.50;54.90;;;18.00;94.20;;;;;;4955857;28;93794;-73
2023/09/14 00:16:24;;;;;;;103.60;55.58;;;17.90;94.10;;;;;;4941789;28;96586;-76
2023/09/14 00:18:50;;;;;;;103.03;55.83;;;18.00;94.30;;;;;;4958551;28;98738;-75
2023/09/14 00:21:15;;;;;;;101.88;55.05;;;17.90;94.30;;;;;;4961545;28;96913;-77
2023/09/14 00:23:41;;;;;;;102.80;55.63;;;17.90;94.10;;;;;;4935709;28;95727;-76
2023/09/14 00:26:06;;;;;;;103.32;55.60;;;17.90;94.30;;;;;;4957691;28;94685;-77
2023/09/14 00:28:32;;;;;;;102.75;55.78;;;17.90;94.50;;;;;;4955170;28;94665;-77
2023/09/14 00:30:57;;;;;;;102.35;55.55;;;17.90;94.30;;;;;;4936355;28;94971;-75
2023/09/14 00:33:23;;;;;;;103.40;55.63;;;17.80;94.10;;;;;;4957682;28;96121;-77
2023/09/14 00:35:49;;;;;;;102.85;55.05;;;17.90;94.30;;;;;;4958109;28;95921;-74
2023/09/14 00:38:15;;;;;;;102.35;55.50;;;17.80;94.70;;;;;;4955182;28;95282;-77
2023/09/14 00:40:41;;;;;;;104.57;55.35;;;17.80;94.10;;;;;;4956914;28;94542;-77
2023/09/14 00:43:07;;;;;;;101.43;54.58;;;17.80;94.50;;;;;;4958564;28;94647;-75
2023/09/14 00:45:32;;;;;;;102.18;55.35;;;17.80;94.40;;;;;;4953540;28;96659;-74
2023/09/14 00:47:59;;;;;;;102.00;55.38;;;17.80;94.40;;;;;;4959668;28;95313;-75
2023/09/14 00:50:29;;;;;;;101.78;55.20;;;17.80;94.20;;;;;;4938192;28;94673;-76
2023/09/14 00:53:00;;;;;;;102.57;55.42;;;17.80;94.40;;;;;;4955309;28;99002;-77
2023/09/14 00:55:27;;;;;;;102.03;55.45;;;17.70;94.40;;;;;;4935251;28;94520;-75
2023/09/14 00:57:55;;;;;;;101.82;55.28;;;17.70;94.20;;;;;;4956442;28;96161;-77
2023/09/14 01:00:21;;;;;;;100.68;54.92;;;17.70;94.30;;;;;;4953430;28;95187;-76
2023/09/14 01:02:50;;;;;;;103.72;54.80;;;17.70;94.30;;;;;;4957179;28;93873;-76
2023/09/14 01:05:16;;;;;;;100.85;55.00;;;17.70;94.50;;;;;;4933457;28;96152;-77
2023/09/14 01:07:42;;;;;;;101.00;54.85;;;17.60;94.30;;;;;;4938762;28;97219;-75
2023/09/14 01:10:09;;;;;;;101.85;55.25;;;17.60;94.50;;;;;;4958995;28;95834;-74
2023/09/14 01:12:36;;;;;;;102.50;55.63;;;17.60;94.50;;;;;;4959281;28;98014;-75
2023/09/14 01:15:29;;;;;;;102.15;55.38;;;17.60;94.40;;;;;;4964570;28;95491;-75
2023/09/14 01:18:15;;;;;;;101.25;55.00;;;17.60;94.40;;;;;;4961049;28;94192;-77
2023/09/14 01:20:50;;;;;;;100.57;54.78;;;17.60;94.40;;;;;;4957319;28;98865;-76
2023/09/14 01:23:41;;;;;;;100.28;54.70;;;17.60;94.50;;;;;;4956883;28;95821;-75
2023/09/14 01:26:08;;;;;;;101.55;54.85;;;17.50;94.40;;;;;;4958280;28;94725;-78
2023/09/14 01:28:34;;;;;;;102.25;54.92;;;17.50;94.50;;;;;;4956916;28;93935;-77
2023/09/14 01:30:59;;;;;;;103.15;55.38;;;17.50;94.30;;;;;;4942701;28;94322;-73
2023/09/14 01:33:27;;;;;;;101.45;54.72;;;17.50;94.50;;;;;;4959431;28;94331;-77
2023/09/14 01:36:05;;;;;;;101.82;55.03;;;17.50;94.50;;;;;;4954358;28;96170;-76
2023/09/14 01:38:32;;;;;;;101.38;54.83;;;17.50;94.50;;;;;;4958773;28;94968;-77
2023/09/14 01:40:59;;;;;;;101.28;54.42;;;17.40;94.40;;;;;;4956306;28;94389;-76
2023/09/14 01:43:25;;;;;;;101.28;55.17;;;17.40;94.60;;;;;;4961769;28;94337;-77
2023/09/14 01:45:51;;;;;;;99.65;54.58;;;17.40;94.60;;;;;;4958326;28;94307;-75
2023/09/14 01:48:18;;;;;;;100.15;54.35;;;17.40;94.70;;;;;;4960916;28;96852;-75
2023/09/14 01:50:44;;;;;;;102.47;55.28;;;17.40;94.60;;;;;;4953708;28;94479;-75
2023/09/14 01:53:10;;;;;;;102.38;55.20;;;17.40;94.60;;;;;;4942243;28;93242;-75
2023/09/14 01:55:36;;;;;;;101.60;55.47;;;17.40;94.50;;;;;;4939099;28;97389;-77
2023/09/14 01:58:02;;;;;;;101.60;55.05;;;17.40;94.70;;;;;;4959417;28;94461;-73
2023/09/14 02:00:27;;;;;;;103.50;55.60;;;17.30;94.40;;;;;;4958291;28;95176;-76
2023/09/14 02:02:53;;;;;;;101.82;55.15;;;17.30;94.60;;;;;;4942181;28;94382;-77
2023/09/14 02:05:19;;;;;;;102.07;55.25;;;17.30;94.50;;;;;;4952121;28;94676;-77
2023/09/14 02:07:45;;;;;;;101.22;55.72;;;17.30;94.60;;;;;;4955796;28;97017;-76
2023/09/14 02:10:10;;;;;;;101.03;54.65;;;17.30;94.60;;;;;;4964173;28;94176;-77
2023/09/14 02:12:36;;;;;;;99.97;54.75;;;17.30;94.60;;;;;;4961495;28;95413;-77
2023/09/14 02:15:02;;;;;;;100.18;54.45;;;17.30;94.90;;;;;;4960032;28;94351;-74
2023/09/14 02:17:29;;;;;;;101.30;55.25;;;17.20;94.60;;;;;;4955258;28;93911;-77
2023/09/14 02:19:55;;;;;;;101.45;55.22;;;17.20;94.60;;;;;;4962136;28;94630;-77
2023/09/14 02:22:20;;;;;;;100.45;54.58;;;17.20;94.70;;;;;;4951195;28;94627;-77
2023/09/14 02:24:47;;;;;;;100.18;54.78;;;17.20;94.50;;;;;;4956692;28;95597;-74
2023/09/14 02:27:12;;;;;;;100.22;54.80;;;17.20;94.60;;;;;;4939015;28;94885;-75
2023/09/14 02:29:38;;;;;;;100.07;54.90;;;17.20;94.60;;;;;;4953765;28;94537;-76
2023/09/14 02:32:05;;;;;;;100.88;55.03;;;17.20;94.60;;;;;;4958583;28;94344;-74
2023/09/14 02:34:30;;;;;;;100.18;54.70;;;17.20;94.70;;;;;;4953510;28;95418;-76
2023/09/14 02:36:56;;;;;;;99.78;54.67;;;17.10;94.60;;;;;;4959985;28;95103;-75
2023/09/14 02:39:21;;;;;;;100.38;54.58;;;17.10;94.30;;;;;;4956575;28;96064;-77
2023/09/14 02:41:47;;;;;;;100.13;54.88;;;17.10;94.50;;;;;;4957942;28;94032;-77
2023/09/14 02:44:12;;;;;;;101.57;55.28;;;17.10;94.50;;;;;;4952024;28;95028;-76
2023/09/14 02:46:38;;;;;;;100.88;55.35;;;17.10;94.60;;;;;;4959181;28;95203;-77
2023/09/14 02:49:04;;;;;;;101.05;54.97;;;17.10;94.70;;;;;;4955475;28;95195;-75
2023/09/14 02:51:29;;;;;;;101.30;55.10;;;17.10;94.70;;;;;;4960220;28;94349;-77
2023/09/14 02:53:55;;;;;;;100.25;55.22;;;17.00;94.70;;;;;;4953839;28;94263;-77
2023/09/14 02:56:20;;;;;;;101.70;55.80;;;17.00;94.50;;;;;;4958192;28;96929;-76
2023/09/14 02:58:46;;;;;;;100.50;55.03;;;17.00;94.80;;;;;;4952775;28;96837;-77
2023/09/14 03:01:11;;;;;;;99.35;54.00;;;17.00;94.90;;;;;;4958884;28;97452;-76
2023/09/14 03:03:38;;;;;;;100.40;54.72;;;17.00;94.60;;;;;;4957068;28;94191;-75
2023/09/14 03:06:04;;;;;;;101.53;55.28;;;17.00;94.60;;;;;;4956814;28;93827;-73
2023/09/14 03:08:30;;;;;;;100.20;54.60;;;17.00;94.70;;;;;;4940130;28;95179;-77
2023/09/14 03:10:56;;;;;;;99.80;54.67;;;16.90;94.70;;;;;;4949866;28;94145;-76
2023/09/14 03:13:22;;;;;;;100.78;54.92;;;17.00;94.60;;;;;;4933955;28;96068;-77
2023/09/14 03:15:55;;;;;;;100.20;55.00;;;17.00;94.70;;;;;;4950209;28;94992;-76
2023/09/14 03:18:21;;;;;;;99.38;54.42;;;16.90;94.60;;;;;;4950512;28;95211;-77
2023/09/14 03:20:53;;;;;;;100.82;55.38;;;16.90;94.70;;;;;;4931564;28;97465;-76
2023/09/14 03:23:19;;;;;;;101.82;54.60;;;16.90;94.70;;;;;;4950745;28;97863;-74
2023/09/14 03:25:45;;;;;;;100.38;54.42;;;16.90;94.80;;;;;;4930527;28;94910;-77
2023/09/14 03:28:11;;;;;;;100.72;54.95;;;16.90;94.70;;;;;;4953892;28;94373;-75
2023/09/14 03:30:37;;;;;;;101.00;55.20;;;16.90;94.50;;;;;;4954413;28;94685;-76
2023/09/14 03:33:02;;;;;;;100.85;55.30;;;16.90;94.90;;;;;;4949396;28;94601;-74
2023/09/14 03:35:28;;;;;;;102.82;55.10;;;16.80;94.80;;;;;;4938401;28;96574;-76
2023/09/14 03:37:54;;;;;;;100.82;54.72;;;16.80;94.80;;;;;;4944199;28;94956;-77
2023/09/14 03:40:20;;;;;;;103.13;54.95;;;16.80;94.80;;;;;;4952982;28;94480;-77
2023/09/14 03:42:46;;;;;;;101.72;55.45;;;16.80;94.80;;;;;;4955803;28;95532;-77
2023/09/14 03:45:11;;;;;;;100.18;55.08;;;16.80;94.70;;;;;;4956288;28;95955;-76
2023/09/14 03:47:38;;;;;;;100.20;55.03;;;16.80;94.70;;;;;;4951144;28;94355;-77
2023/09/14 03:50:04;;;;;;;100.63;54.42;;;16.70;94.70;;;;;;4959736;28;94662;-76
2023/09/14 03:52:30;;;;;;;99.70;55.05;;;16.70;94.60;;;;;;4952134;28;94764;-77
2023/09/14 03:54:56;;;;;;;100.00;55.05;;;16.70;94.70;;;;;;4960838;28;93670;-75
2023/09/14 03:57:21;;;;;;;101.82;55.17;;;16.70;94.70;;;;;;4953782;28;94113;-78
2023/09/14 03:59:47;;;;;;;99.20;54.75;;;16.70;94.70;;;;;;4962614;28;94239;-78
2023/09/14 04:02:13;;;;;;;100.82;54.70;;;16.70;94.70;;;;;;4957243;28;95781;-76
2023/09/14 04:04:43;;;;;;;100.07;55.22;;;16.70;94.60;;;;;;4960119;28;96527;-75
2023/09/14 04:07:09;;;;;;;100.03;54.70;;;16.70;94.80;;;;;;4958422;28;97818;-76
2023/09/14 04:09:35;;;;;;;100.85;54.85;;;16.60;94.70;;;;;;4952685;28;94394;-77
2023/09/14 04:12:00;;;;;;;99.22;54.40;;;16.60;94.60;;;;;;4959001;28;95090;-75
2023/09/14 04:14:26;;;;;;;101.20;55.08;;;16.60;94.70;;;;;;4954853;28;94786;-77
2023/09/14 04:16:56;;;;;;;103.32;55.60;;;16.60;94.70;;;;;;4941661;28;94459;-77
2023/09/14 04:19:26;;;;;;;99.40;54.47;;;16.60;94.60;;;;;;4950994;28;93252;-74
2023/09/14 04:21:52;;;;;;;100.53;54.72;;;16.60;94.70;;;;;;4936339;28;94392;-77
2023/09/14 04:24:18;;;;;;;100.15;55.03;;;16.60;94.60;;;;;;4936330;28;96226;-76
2023/09/14 04:26:44;;;;;;;98.85;54.38;;;16.60;94.70;;;;;;4954083;28;98197;-77
2023/09/14 04:29:10;;;;;;;98.35;54.15;;;16.60;94.90;;;;;;4958610;28;94545;-78
2023/09/14 04:31:36;;;;;;;100.60;54.53;;;16.60;94.60;;;;;;4953246;28;96805;-77
2023/09/14 04:34:01;;;;;;;99.25;54.42;;;16.60;94.70;;;;;;4963697;28;94926;-74
2023/09/14 04:36:27;;;;;;;100.47;55.08;;;16.60;94.60;;;;;;4950303;28;94089;-74
2023/09/14 04:38:53;;;;;;;99.90;54.15;;;16.60;94.70;;;;;;4958191;28;94394;-76
2023/09/14 04:41:18;;;;;;;99.82;55.17;;;16.60;94.60;;;;;;4951232;28;96735;-77
2023/09/14 04:43:44;;;;;;;99.90;55.10;;;16.60;94.90;;;;;;4956102;28;94505;-74
2023/09/14 04:46:09;;;;;;;99.32;54.30;;;16.60;94.90;;;;;;4957802;28;94389;-76
2023/09/14 04:48:38;;;;;;;99.43;54.90;;;16.60;94.60;;;;;;4943833;28;95594;-75
2023/09/14 04:51:04;;;;;;;98.68;54.40;;;16.60;94.70;;;;;;4947844;28;96683;-75
2023/09/14 04:53:30;;;;;;;98.43;54.40;;;16.60;95.10;;;;;;4939326;28;95337;-75
2023/09/14 04:55:56;;;;;;;98.82;54.65;;;16.60;95.50;;;;;;4955280;28;97078;-76
2023/09/14 04:58:21;;;;;;;98.85;54.53;;;16.60;95.50;;;;;;4958082;28;95789;-78
2023/09/14 05:00:48;;;;;;;98.97;54.15;;;16.60;95.30;;;;;;4958019;28;94621;-76
2023/09/14 05:03:14;;;;;;;101.25;55.35;;;16.60;95.20;;;;;;4956633;28;94595;-75
2023/09/14 05:05:39;;;;;;;100.63;54.92;;;16.60;95.20;;;;;;4962270;28;94404;-76
2023/09/14 05:08:06;;;;;;;100.88;55.45;;;16.60;94.50;;;;;;4949747;28;96014;-76
2023/09/14 05:10:32;;;;;;;100.70;55.25;;;16.60;94.50;;;;;;4978908;22;95484;-45
2023/09/14 05:12:57;;;;;;;103.05;55.55;;;16.60;94.50;;;;;;4948683;28;95063;-45
2023/09/14 05:15:23;;;;;;;100.03;55.15;;;16.60;94.50;;;;;;4953238;28;96229;-45
2023/09/14 05:17:49;;;;;;;100.82;55.13;;;16.50;94.50;;;;;;4951607;28;96419;-45
2023/09/14 05:20:15;;;;;;;100.03;55.08;;;16.50;94.70;;;;;;4953850;28;98593;-45
2023/09/14 05:22:41;;;;;;;100.75;55.55;;;16.50;94.60;;;;;;4945275;28;99319;-46
2023/09/14 05:25:08;;;;;;;101.05;55.28;;;16.50;94.80;;;;;;4947963;28;95190;-45
2023/09/14 05:27:40;;;;;;;100.85;54.50;;;16.60;94.50;;;;;;4948797;28;95947;-45
2023/09/14 05:30:10;;;;;;;99.57;54.58;;;16.50;93.80;;;;;;4947156;28;94836;-45
2023/09/14 05:32:37;;;;;;;100.18;54.80;;;16.50;93.70;;;;;;4928669;28;94399;-46
2023/09/14 05:35:06;;;;;;;100.50;55.28;;;16.60;94.50;;;;;;4952166;28;98778;-45
2023/09/14 05:37:32;;;;;;;101.15;55.33;;;16.60;94.30;;;;;;4950844;28;95697;-45
2023/09/14 05:39:57;;;;;;;101.78;55.38;;;16.60;94.10;;;;;;4936220;28;97526;-45
2023/09/14 05:42:23;;;;;;;104.90;55.22;;;16.60;94.10;;;;;;4949098;28;96692;-45
2023/09/14 05:44:49;;;;;;;101.55;54.88;;;16.60;93.90;;;;;;4955252;28;98350;-45
2023/09/14 05:47:15;;;;;;;97.25;53.20;;;16.60;94.00;;;;;;4946660;28;95478;-46
2023/09/14 05:49:41;;;;;;;96.72;53.05;;;16.70;98.30;;;;;;4935818;28;96928;-45
2023/09/14 05:52:07;;;;;;;96.95;53.15;;;16.80;98.60;;;;;;4950150;28;97006;-46
2023/09/14 05:54:33;;;;;;;96.70;53.00;;;16.80;99.30;;;;;;4951821;28;94577;-45
2023/09/14 05:56:59;;;;;;;97.43;53.20;;;16.90;98.90;;;;;;4936493;28;95142;-45
2023/09/14 05:59:24;;;;;;;97.75;53.60;;;16.80;98.00;;;;;;4951916;28;96771;-45
2023/09/14 06:01:50;;;;;;;97.63;53.42;;;16.80;98.30;;;;;;4951117;28;98557;-47
2023/09/14 06:04:17;;;;;;;97.18;53.33;;;17.00;99.90;;;;;;4951005;28;95579;-44
2023/09/14 06:06:43;;;;;;;96.82;53.00;;;17.00;99.90;;;;;;4951855;28;95677;-45
2023/09/14 06:09:09;;;;;;;96.93;53.00;;;17.10;99.90;;;;;;4947398;28;95618;-45
2023/09/14 06:11:35;;;;;;;98.47;53.33;;;17.10;99.90;;;;;;4954195;28;96362;-45
2023/09/14 06:14:00;;;;;;;97.25;53.35;;;17.10;99.90;;;;;;4947369;28;95384;-45
2023/09/14 06:16:26;;;;;;;99.97;54.45;;;17.10;99.90;;;;;;4956467;28;94823;-45
2023/09/14 06:18:52;;;;;;;100.18;54.58;;;17.00;97.60;;;;;;4947353;28;97736;-45
2023/09/14 06:21:18;;;;;;;101.05;54.75;;;16.90;96.00;;;;;;4951509;28;95304;-45
2023/09/14 06:23:44;;;;;;;101.55;55.15;;;16.80;95.60;;;;;;4948780;28;96260;-47
2023/09/14 06:26:10;;;;;;;99.00;54.53;;;16.80;95.30;;;;;;4952779;28;94806;-47
2023/09/14 06:28:36;;;;;;;100.03;54.92;;;16.80;96.40;;;;;;4946703;28;96086;-45
2023/09/14 06:31:01;;;;;;;104.28;55.85;;;16.80;96.20;;;;;;4954155;28;94892;-45
2023/09/14 06:33:27;;;;;;;101.60;55.83;;;16.80;96.00;;;;;;4947476;28;95538;-46
2023/09/14 06:35:52;;;;;;;100.70;55.30;;;16.80;95.30;;;;;;4953053;28;94891;-46
2023/09/14 06:38:18;;;;;;;101.57;55.42;;;16.80;95.00;;;;;;4948106;28;100666;-46
2023/09/14 06:40:44;;;;;;;102.68;56.53;;;16.90;95.60;;;;;;4948195;28;94758;-45
2023/09/14 06:43:10;;;;;;;101.53;55.95;;;16.80;95.30;;;;;;4953139;28;95239;-46
2023/09/14 06:45:35;;;;;;;101.28;56.55;;;16.90;95.10;;;;;;4951543;28;94487;-45
2023/09/14 06:48:01;;;;;;;101.88;55.63;;;16.90;96.10;;;;;;4951078;28;94746;-47
2023/09/14 06:50:26;;;;;;;99.88;55.65;;;17.00;96.10;;;;;;4951603;28;95007;-46
2023/09/14 06:52:52;;;;;;;101.70;56.38;;;17.00;95.10;;;;;;4957563;28;95640;-45
2023/09/14 06:55:19;;;;;;;101.32;55.45;;;16.90;95.70;;;;;;4949965;28;95073;-47
2023/09/14 06:57:45;;;;;;;101.43;55.40;;;17.00;95.80;;;;;;4950923;28;96360;-44
2023/09/14 07:00:14;;;;;;;100.60;54.60;;;17.00;95.40;;;;;;4946389;28;94667;-46
2023/09/14 07:02:41;;;;;;;101.55;54.58;;;17.10;95.60;;;;;;4951671;28;95371;-45
2023/09/14 07:05:08;;;;;;;103.30;55.78;;;17.10;96.50;;;;;;4950498;28;96620;-46
2023/09/14 07:07:33;;;;;;;99.88;55.28;;;17.10;95.10;;;;;;4948598;28;95451;-46
2023/09/14 07:09:59;;;;;;;98.70;53.92;;;17.10;95.80;;;;;;4952801;28;93818;-46
2023/09/14 07:12:24;;;;;;;98.90;54.00;;;17.20;95.70;;;;;;4945051;28;95818;-45
2023/09/14 07:14:50;;;;;;;98.47;53.95;;;17.20;96.60;;;;;;4954063;28;94880;-46
2023/09/14 07:17:16;;;;;;;102.97;55.75;;;17.20;97.00;;;;;;4946704;28;97619;-46
2023/09/14 07:19:42;;;;;;;100.20;54.95;;;17.20;95.70;;;;;;4950585;28;94921;-46
2023/09/14 07:22:08;;;;;;;98.22;54.00;;;17.20;95.20;;;;;;4948793;28;95126;-45
2023/09/14 07:24:33;;;;;;;97.65;53.53;;;17.30;95.70;;;;;;4952902;28;94635;-45
2023/09/14 07:26:59;;;;;;;99.38;54.03;;;17.30;96.10;;;;;;4946875;28;95397;-45
2023/09/14 07:29:26;;;;;;;99.03;54.30;;;17.30;97.00;;;;;;4954078;28;95093;-45
2023/09/14 07:31:52;;;;;;;102.45;56.20;;;17.40;95.70;;;;;;4947633;28;95567;-45
2023/09/14 07:34:18;;;;;;;102.22;54.80;;;17.40;94.90;;;;;;4954485;28;93606;-45
2023/09/14 07:36:44;;;;;;;101.53;55.30;;;17.50;97.00;;;;;;4949399;28;95197;-45
2023/09/14 07:39:10;;;;;;;98.63;53.95;;;17.50;95.40;;;;;;4952819;28;96979;-46
2023/09/14 07:41:36;;;;;;;101.53;55.45;;;17.50;96.60;;;;;;4948942;28;95746;-45
2023/09/14 07:44:02;;;;;;;99.97;54.22;;;17.50;95.00;;;;;;4949227;28;96529;-46
2023/09/14 07:46:27;;;;;;;100.65;54.63;;;17.60;95.80;;;;;;4950768;28;95158;-45
2023/09/14 07:48:53;;;;;;;103.38;55.20;;;17.50;95.30;;;;;;4950043;28;94636;-46
2023/09/14 07:51:19;;;;;;;98.78;54.03;;;17.60;95.90;;;;;;4953321;28;94973;-45
2023/09/14 07:53:44;;;;;;;99.07;54.28;;;17.70;95.60;;;;;;4945730;28;94720;-45
2023/09/14 07:56:10;;;;;;;100.07;54.72;;;17.80;95.20;;;;;;4951502;28;95586;-46
2023/09/14 07:58:35;;;;;;;103.15;56.08;;;17.90;94.70;;;;;;4947992;28;94776;-45
2023/09/14 08:01:01;;;;;;;100.32;54.42;;;18.00;94.30;;;;;;4935500;28;95982;-45
2023/09/14 08:03:27;;;;;;;99.35;54.13;;;18.10;95.40;;;;;;4947838;28;97380;-45
2023/09/14 08:05:53;;;;;;;103.53;55.65;;;18.10;94.60;;;;;;4951677;28;95926;-45
2023/09/14 08:08:19;;;;;;;101.72;55.15;;;18.20;93.40;;;;;;4947577;28;95310;-45
2023/09/14 08:10:52;;;;;;;99.95;54.03;;;18.20;93.90;;;;;;4950670;28;95438;-47
2023/09/14 08:13:18;;;;;;;101.97;55.60;;;18.30;95.60;;;;;;4951319;28;95149;-44
2023/09/14 08:15:44;;;;;;;101.43;55.13;;;18.40;93.00;;;;;;4947351;28;97048;-45
2023/09/14 08:18:10;;;;;;;99.43;53.90;;;18.50;94.30;;;;;;4949151;28;98335;-46
2023/09/14 08:20:39;;;;;;;104.35;55.67;;;18.50;93.80;;;;;;4948546;28;97604;-45
2023/09/14 08:23:04;;;;;;;101.50;55.15;;;18.60;92.80;;;;;;4955313;28;94000;-45
2023/09/14 08:25:31;;;;;;;101.45;55.00;;;18.60;92.60;;;;;;4952009;28;95096;-45
2023/09/14 08:27:56;;;;;;;100.32;54.47;;;18.60;92.30;;;;;;4953714;28;97898;-46
2023/09/14 08:30:25;;;;;;;101.65;54.92;;;18.60;93.60;;;;;;4953331;28;98408;-44
2023/09/14 08:32:50;;;;;;;102.22;55.95;;;18.70;93.80;;;;;;4938639;28;94681;-44
2023/09/14 08:35:24;;;;;;;100.00;54.05;;;18.80;91.90;;;;;;4951076;28;94725;-45
2023/09/14 08:37:53;;;;;;;100.63;54.30;;;18.80;92.90;;;;;;4953921;28;95026;-45
2023/09/14 08:40:19;;;;;;;101.68;54.63;;;18.90;94.10;;;;;;4957295;28;96122;-45
2023/09/14 08:42:51;;;;;;;100.07;54.33;;;18.90;93.00;;;;;;4955949;28;96024;-45
2023/09/14 08:45:25;;;;;;;99.70;54.22;;;18.90;93.30;;;;;;4961519;28;94669;-46
2023/09/14 08:47:51;;;;;;;100.15;53.97;;;18.90;93.20;;;;;;4953119;28;95921;-45
2023/09/14 08:50:18;;;;;;;99.68;54.35;;;19.00;92.80;;;;;;4950065;28;94723;-45
2023/09/14 08:52:47;;;;;;;101.25;54.75;;;19.00;94.30;;;;;;4956951;28;96604;-45
2023/09/14 08:55:14;;;;;;;101.20;54.38;;;19.00;92.60;;;;;;4950245;28;96011;-46
2023/09/14 08:57:41;;;;;;;101.13;54.65;;;19.10;93.10;;;;;;4955059;28;95768;-43
2023/09/14 09:00:15;;;;;;;102.85;54.42;;;19.10;94.20;;;;;;4948282;28;95075;-45
2023/09/14 09:02:43;;;;;;;100.20;54.28;;;19.10;92.10;;;;;;4954516;28;95255;-45
2023/09/14 09:05:11;;;;;;;101.47;54.40;;;19.10;93.10;;;;;;4948428;28;95194;-45
2023/09/14 09:07:41;;;;;;;100.97;54.42;;;19.20;93.40;;;;;;4951200;28;95599;-45
2023/09/14 09:10:31;;;;;;;101.50;54.63;;;19.20;92.30;;;;;;4953958;28;94868;-45
2023/09/14 09:12:59;;;;;;;100.57;54.38;;;19.20;93.20;;;;;;4948214;28;94596;-44
2023/09/14 09:15:26;;;;;;;105.85;55.75;;;19.20;91.40;;;;;;4954232;28;95242;-45
2023/09/14 09:18:06;;;;;;;100.47;53.95;;;19.20;91.10;;;;;;4945413;28;97098;-45
2023/09/14 09:20:32;;;;;;;103.15;55.05;;;19.30;93.40;;;;;;4947611;28;95708;-44
2023/09/14 09:23:01;;;;;;;101.05;54.33;;;19.30;92.00;;;;;;4954285;28;95335;-45
2023/09/14 09:25:42;;;;;;;103.05;55.42;;;19.40;93.10;;;;;;4951499;28;94741;-45
2023/09/14 09:28:07;;;;;;;103.38;55.63;;;19.40;91.40;;;;;;4953488;28;95027;-45
2023/09/14 09:30:34;;;;;;;100.88;54.17;;;19.30;91.00;;;;;;4950339;28;94733;-46
2023/09/14 09:33:00;;;;;;;100.18;53.92;;;19.40;91.70;;;;;;4952450;28;94721;-45
2023/09/14 09:35:28;;;;;;;100.47;54.47;;;19.40;93.00;;;;;;4951482;28;95401;-45
2023/09/14 09:37:55;;;;;;;101.65;54.40;;;19.50;92.90;;;;;;4949633;28;97574;-45
2023/09/14 09:40:23;;;;;;;101.30;54.78;;;19.60;91.70;;;;;;4958441;28;95507;-45
2023/09/14 09:42:50;;;;;;;104.15;55.75;;;19.60;91.60;;;;;;4947126;28;98162;-46
2023/09/14 09:45:19;;;;;;;101.60;54.30;;;19.60;91.60;;;;;;4951669;28;95642;-45
2023/09/14 09:47:45;;;;;;;100.80;54.47;;;19.70;92.40;;;;;;4945841;28;97050;-45
2023/09/14 09:50:13;;;;;;;100.20;54.20;;;19.60;91.50;;;;;;4953427;28;97008;-47
2023/09/14 09:52:43;;;;;;;102.75;55.35;;;19.70;92.30;;;;;;4949288;28;94881;-46
2023/09/14 09:55:26;;;;;;;101.70;54.50;;;19.70;91.20;;;;;;4950375;28;95220;-45
2023/09/14 09:58:00;;;;;;;101.65;54.88;;;19.80;92.00;;;;;;4953063;28;95390;-47
2023/09/14 10:00:31;;;;;;;101.82;54.13;;;19.80;91.70;;;;;;4950084;28;99757;-44
2023/09/14 10:02:57;;;;;;;102.20;54.60;;;19.90;91.90;;;;;;4954186;28;97797;-45
2023/09/14 10:05:30;;;;;;;102.78;54.80;;;19.90;90.90;;;;;;4950652;28;96067;-45
2023/09/14 10:07:58;;;;;;;103.03;55.55;;;19.90;92.00;;;;;;4948481;28;97823;-45
2023/09/14 10:10:28;;;;;;;101.30;54.35;;;20.00;90.80;;;;;;4954616;28;98977;-45
2023/09/14 10:12:55;;;;;;;103.20;55.70;;;20.00;91.70;;;;;;4948145;28;95987;-45
2023/09/14 10:15:24;;;;;;;101.35;54.35;;;20.00;90.50;;;;;;4953881;28;94773;-45
2023/09/14 10:17:54;;;;;;;102.78;55.25;;;20.10;91.70;;;;;;4947717;28;94820;-46
2023/09/14 10:20:21;;;;;;;101.90;54.75;;;20.10;90.70;;;;;;4952152;28;94877;-45
2023/09/14 10:22:47;;;;;;;102.30;54.58;;;20.10;91.10;;;;;;4950623;28;96775;-47
2023/09/14 10:25:14;;;;;;;101.50;54.35;;;20.20;91.30;;;;;;4952022;28;95406;-48
2023/09/14 10:27:39;;;;;;;104.13;54.95;;;20.20;91.00;;;;;;4950583;28;95046;-45
2023/09/14 10:30:07;;;;;;;102.38;55.00;;;20.30;90.30;;;;;;4949231;28;94736;-47
2023/09/14 10:32:38;;;;;;;103.47;55.75;;;20.30;90.90;;;;;;4953116;28;96286;-46
2023/09/14 10:35:04;;;;;;;102.55;54.83;;;20.30;90.00;;;;;;4950520;28;97052;-45
2023/09/14 10:37:31;;;;;;;102.90;54.80;;;20.40;91.00;;;;;;4958980;28;96015;-45
2023/09/14 10:39:57;;;;;;;104.38;55.75;;;20.40;90.10;;;;;;4946819;28;95212;-45
2023/09/14 10:42:23;;;;;;;102.68;55.08;;;20.40;89.80;;;;;;4934956;28;97418;-44
2023/09/14 10:44:49;;;;;;;102.68;55.00;;;20.50;89.60;;;;;;4948566;28;97936;-45
2023/09/14 10:47:19;;;;;;;102.45;54.97;;;20.50;89.70;;;;;;4950697;28;95377;-45
2023/09/14 10:49:45;;;;;;;102.25;54.75;;;20.60;90.20;;;;;;4954932;28;97090;-45
2023/09/14 10:52:11;;;;;;;103.35;55.42;;;20.60;89.30;;;;;;4948632;28;94340;-45
2023/09/14 10:54:38;;;;;;;103.07;55.00;;;20.50;88.50;;;;;;4954492;28;94867;-45
2023/09/14 10:57:14;;;;;;;101.65;54.63;;;20.60;89.30;;;;;;4945648;28;94849;-45
2023/09/14 10:59:57;;;;;;;102.00;54.53;;;20.60;89.70;;;;;;4952188;28;96409;-45
2023/09/14 11:02:43;;;;;;;103.78;55.90;;;20.70;90.00;;;;;;4951365;28;95058;-45
2023/09/14 11:05:19;;;;;;;103.45;55.70;;;20.70;88.20;;;;;;4945311;28;95439;-45
2023/09/14 11:07:49;;;;;;;104.00;55.05;;;20.80;88.70;;;;;;4953366;28;95567;-45
2023/09/14 11:10:18;;;;;;;102.13;54.60;;;20.80;90.00;;;;;;4951399;28;94995;-46
2023/09/14 11:12:44;;;;;;;103.38;55.40;;;20.90;89.30;;;;;;4949742;28;94735;-46
2023/09/14 11:15:16;;;;;;;102.63;54.88;;;21.00;88.50;;;;;;4953610;28;98307;-45
2023/09/14 11:17:43;;;;;;;104.70;55.17;;;21.10;88.20;;;;;;4945064;28;94700;-45
2023/09/14 11:20:24;;;;;;;103.95;55.28;;;21.10;87.70;;;;;;4954932;28;95079;-45
2023/09/14 11:22:51;;;;;;;103.60;55.50;;;21.10;87.40;;;;;;4950401;28;97219;-45
2023/09/14 11:25:26;;;;;;;103.53;55.55;;;21.10;87.20;;;;;;4950033;28;96311;-45
2023/09/14 11:27:52;;;;;;;103.22;55.20;;;21.20;86.20;;;;;;4950828;28;97311;-45
2023/09/14 11:30:19;;;;;;;103.90;55.10;;;21.20;87.20;;;;;;4946955;28;95152;-45
2023/09/14 11:32:46;;;;;;;103.38;55.00;;;21.30;87.00;;;;;;4956696;28;94787;-46
2023/09/14 11:35:13;;;;;;;103.72;55.13;;;21.30;86.50;;;;;;4948233;28;97348;-45
2023/09/14 11:37:41;;;;;;;104.05;55.33;;;21.40;86.10;;;;;;4952726;28;96860;-45
2023/09/14 11:40:15;;;;;;;103.72;55.47;;;21.50;86.00;;;;;;4946275;28;96706;-45
2023/09/14 11:43:06;;;;;;;104.28;55.45;;;21.50;85.60;;;;;;4951437;28;93909;-45
2023/09/14 11:45:35;;;;;;;106.88;55.28;;;21.60;85.00;;;;;;4951664;28;95943;-46
2023/09/14 11:48:02;;;;;;;104.40;55.58;;;21.70;84.90;;;;;;4947493;28;96050;-45
2023/09/14 11:50:28;;;;;;;103.93;55.42;;;21.80;84.30;;;;;;4951611;28;98698;-45
2023/09/14 11:52:56;;;;;;;105.30;56.00;;;21.80;83.80;;;;;;4946891;28;95415;-45
2023/09/14 11:55:22;;;;;;;104.20;55.45;;;21.90;83.60;;;;;;4951146;28;95195;-45
2023/09/14 11:57:48;;;;;;;104.82;55.80;;;22.00;83.40;;;;;;4949963;28;95557;-45
2023/09/14 12:00:15;;;;;;;105.90;56.22;;;22.00;83.20;;;;;;4949108;28;95081;-45
2023/09/14 12:02:41;;;;;;;105.57;56.10;;;22.10;83.00;;;;;;4950020;28;94798;-44
2023/09/14 12:05:08;;;;;;;105.75;56.25;;;22.10;82.80;;;;;;4947678;28;94954;-46
2023/09/14 12:07:33;;;;;;;104.88;55.70;;;22.10;83.10;;;;;;4952298;28;96986;-46
2023/09/14 12:09:59;;;;;;;105.07;55.85;;;22.10;82.80;;;;;;4945914;28;96641;-45
2023/09/14 12:12:29;;;;;;;105.28;55.95;;;22.20;82.10;;;;;;4952209;28;95447;-45
2023/09/14 12:14:57;;;;;;;105.17;55.87;;;22.30;82.00;;;;;;4948944;28;99839;-45
2023/09/14 12:17:25;;;;;;;104.97;56.05;;;22.40;81.90;;;;;;4949477;28;95318;-45
2023/09/14 12:19:55;;;;;;;105.70;56.20;;;22.40;81.20;;;;;;4949797;28;96253;-45